sensor_id;sensor_type;location;lat;lon;timestamp;P1;durP1;ratioP1;P2;durP2;ratioP2
45322;SDS011;31382;50.200;8.674;2022-09-01T00:00:46;0.93;;;0.50;;
45322;SDS011;31382;50.200;8.674;2022-09-01T00:05:50;2.28;;;0.50;;
45322;SDS011;31382;50.200;8.674;2022-09-01T00:10:55;7.85;;;0.60;;
45322;SDS011;31382;50.200;8.674;2022-09-01T00:15:57;1.02;;;0.40;;
45322;SDS011;31382;50.200;8.674;2022-09-01T00:20:59;1.20;;;0.38;;
45322;SDS011;31382;50.200;8.674;2022-09-01T00:26:02;0.77;;;0.50;;
45322;SDS011;31382;50.200;8.674;2022-09-01T00:31:04;0.50;;;0.40;;
45322;SDS011;31382;50.200;8.674;2022-09-01T00:36:08;1.73;;;0.50;;
45322;SDS011;31382;50.200;8.674;2022-09-01T00:41:10;3.15;;;0.52;;
45322;SDS011;31382;50.200;8.674;2022-09-01T00:46:14;3.75;;;0.63;;
45322;SDS011;31382;50.200;8.674;2022-09-01T00:51:22;4.03;;;0.82;;
45322;SDS011;31382;50.200;8.674;2022-09-01T00:56:24;1.60;;;0.57;;
45322;SDS011;31382;50.200;8.674;2022-09-01T01:01:26;3.55;;;1.13;;
45322;SDS011;31382;50.200;8.674;2022-09-01T01:06:28;3.13;;;0.88;;
45322;SDS011;31382;50.200;8.674;2022-09-01T01:11:32;3.85;;;0.75;;
45322;SDS011;31382;50.200;8.674;2022-09-01T01:16:34;2.35;;;0.70;;
45322;SDS011;31382;50.200;8.674;2022-09-01T01:21:41;1.08;;;0.55;;
45322;SDS011;31382;50.200;8.674;2022-09-01T01:27:03;3.70;;;0.73;;
45322;SDS011;31382;50.200;8.674;2022-09-01T01:32:05;3.25;;;0.70;;
45322;SDS011;31382;50.200;8.674;2022-09-01T01:37:13;1.27;;;0.60;;
45322;SDS011;31382;50.200;8.674;2022-09-01T01:42:15;2.53;;;0.55;;
45322;SDS011;31382;50.200;8.674;2022-09-01T01:47:17;1.13;;;0.60;;
45322;SDS011;31382;50.200;8.674;2022-09-01T01:52:20;1.45;;;0.77;;
45322;SDS011;31382;50.200;8.674;2022-09-01T01:57:27;1.80;;;0.80;;
45322;SDS011;31382;50.200;8.674;2022-09-01T02:02:32;2.13;;;0.68;;
45322;SDS011;31382;50.200;8.674;2022-09-01T02:07:34;3.17;;;0.82;;
45322;SDS011;31382;50.200;8.674;2022-09-01T02:12:38;0.70;;;0.57;;
45322;SDS011;31382;50.200;8.674;2022-09-01T02:17:41;2.03;;;0.70;;
45322;SDS011;31382;50.200;8.674;2022-09-01T02:22:45;2.28;;;0.75;;
45322;SDS011;31382;50.200;8.674;2022-09-01T02:27:47;3.53;;;1.02;;
45322;SDS011;31382;50.200;8.674;2022-09-01T02:32:55;1.30;;;0.65;;
45322;SDS011;31382;50.200;8.674;2022-09-01T02:37:59;1.52;;;0.80;;
45322;SDS011;31382;50.200;8.674;2022-09-01T02:43:01;2.05;;;0.90;;
45322;SDS011;31382;50.200;8.674;2022-09-01T02:48:04;1.25;;;0.93;;
45322;SDS011;31382;50.200;8.674;2022-09-01T02:53:10;6.30;;;0.98;;
45322;SDS011;31382;50.200;8.674;2022-09-01T02:58:15;1.95;;;0.93;;
45322;SDS011;31382;50.200;8.674;2022-09-01T03:03:19;3.72;;;0.98;;
45322;SDS011;31382;50.200;8.674;2022-09-01T03:08:23;2.83;;;0.93;;
45322;SDS011;31382;50.200;8.674;2022-09-01T03:13:25;1.15;;;0.70;;
45322;SDS011;31382;50.200;8.674;2022-09-01T03:18:29;1.60;;;0.98;;
45322;SDS011;31382;50.200;8.674;2022-09-01T03:23:31;2.33;;;0.90;;
45322;SDS011;31382;50.200;8.674;2022-09-01T03:28:34;1.55;;;0.75;;
45322;SDS011;31382;50.200;8.674;2022-09-01T03:33:37;1.73;;;1.15;;
45322;SDS011;31382;50.200;8.674;2022-09-01T03:38:39;3.92;;;1.10;;
45322;SDS011;31382;50.200;8.674;2022-09-01T03:43:44;2.63;;;0.88;;
45322;SDS011;31382;50.200;8.674;2022-09-01T03:48:52;1.58;;;0.63;;
45322;SDS011;31382;50.200;8.674;2022-09-01T03:58:59;2.13;;;0.80;;
45322;SDS011;31382;50.200;8.674;2022-09-01T04:04:01;1.48;;;0.70;;
45322;SDS011;31382;50.200;8.674;2022-09-01T04:09:07;2.28;;;0.77;;
45322;SDS011;31382;50.200;8.674;2022-09-01T04:14:11;2.22;;;0.73;;
45322;SDS011;31382;50.200;8.674;2022-09-01T04:19:14;1.65;;;0.80;;
45322;SDS011;31382;50.200;8.674;2022-09-01T04:24:27;1.00;;;0.70;;
45322;SDS011;31382;50.200;8.674;2022-09-01T04:29:31;1.73;;;0.70;;
45322;SDS011;31382;50.200;8.674;2022-09-01T04:34:34;2.22;;;0.70;;
45322;SDS011;31382;50.200;8.674;2022-09-01T04:39:38;1.85;;;0.77;;
45322;SDS011;31382;50.200;8.674;2022-09-01T04:44:52;1.80;;;0.90;;
45322;SDS011;31382;50.200;8.674;2022-09-01T04:49:58;1.58;;;0.70;;
45322;SDS011;31382;50.200;8.674;2022-09-01T04:55:00;1.08;;;0.68;;
45322;SDS011;31382;50.200;8.674;2022-09-01T05:00:03;1.20;;;0.60;;
45322;SDS011;31382;50.200;8.674;2022-09-01T05:05:06;3.88;;;0.73;;
45322;SDS011;31382;50.200;8.674;2022-09-01T05:10:14;1.83;;;0.95;;
45322;SDS011;31382;50.200;8.674;2022-09-01T05:15:23;1.17;;;0.70;;
45322;SDS011;31382;50.200;8.674;2022-09-01T05:20:28;1.23;;;0.50;;
45322;SDS011;31382;50.200;8.674;2022-09-01T05:25:51;1.25;;;0.60;;
45322;SDS011;31382;50.200;8.674;2022-09-01T05:30:59;1.75;;;0.50;;
45322;SDS011;31382;50.200;8.674;2022-09-01T05:36:02;1.17;;;0.50;;
45322;SDS011;31382;50.200;8.674;2022-09-01T05:41:09;4.00;;;0.70;;
45322;SDS011;31382;50.200;8.674;2022-09-01T05:46:22;2.72;;;0.50;;
45322;SDS011;31382;50.200;8.674;2022-09-01T05:51:34;0.98;;;0.40;;
45322;SDS011;31382;50.200;8.674;2022-09-01T05:56:46;5.75;;;0.40;;
45322;SDS011;31382;50.200;8.674;2022-09-01T06:01:49;6.93;;;0.52;;
45322;SDS011;31382;50.200;8.674;2022-09-01T06:06:54;1.95;;;0.30;;
45322;SDS011;31382;50.200;8.674;2022-09-01T06:12:06;2.60;;;0.30;;
45322;SDS011;31382;50.200;8.674;2022-09-01T06:17:19;0.95;;;0.32;;
45322;SDS011;31382;50.200;8.674;2022-09-01T06:22:28;0.65;;;0.20;;
45322;SDS011;31382;50.200;8.674;2022-09-01T06:27:31;1.50;;;0.40;;
45322;SDS011;31382;50.200;8.674;2022-09-01T06:32:45;2.05;;;0.38;;
45322;SDS011;31382;50.200;8.674;2022-09-01T06:37:57;0.30;;;0.20;;
45322;SDS011;31382;50.200;8.674;2022-09-01T06:43:08;1.95;;;0.30;;
45322;SDS011;31382;50.200;8.674;2022-09-01T06:48:29;0.38;;;0.17;;
45322;SDS011;31382;50.200;8.674;2022-09-01T06:54:11;1.10;;;0.30;;
45322;SDS011;31382;50.200;8.674;2022-09-01T06:59:42;0.85;;;0.30;;
45322;SDS011;31382;50.200;8.674;2022-09-01T07:05:25;1.95;;;0.30;;
45322;SDS011;31382;50.200;8.674;2022-09-01T07:11:08;0.90;;;0.20;;
45322;SDS011;31382;50.200;8.674;2022-09-01T07:17:15;3.60;;;0.30;;
45322;SDS011;31382;50.200;8.674;2022-09-01T07:23:17;3.22;;;0.30;;
45322;SDS011;31382;50.200;8.674;2022-09-01T07:29:05;1.05;;;0.30;;
45322;SDS011;31382;50.200;8.674;2022-09-01T07:34:33;4.75;;;0.25;;
45322;SDS011;31382;50.200;8.674;2022-09-01T07:39:56;5.10;;;0.20;;
45322;SDS011;31382;50.200;8.674;2022-09-01T07:45:21;3.00;;;0.20;;
45322;SDS011;31382;50.200;8.674;2022-09-01T07:50:35;0.85;;;0.45;;
45322;SDS011;31382;50.200;8.674;2022-09-01T08:01:40;1.00;;;0.30;;
45322;SDS011;31382;50.200;8.674;2022-09-01T08:06:44;5.32;;;0.40;;
45322;SDS011;31382;50.200;8.674;2022-09-01T08:11:47;3.47;;;0.30;;
45322;SDS011;31382;50.200;8.674;2022-09-01T08:17:02;1.45;;;0.20;;
45322;SDS011;31382;50.200;8.674;2022-09-01T08:22:29;1.80;;;0.30;;
45322;SDS011;31382;50.200;8.674;2022-09-01T08:27:54;0.60;;;0.25;;
45322;SDS011;31382;50.200;8.674;2022-09-01T08:33:01;2.92;;;0.30;;
45322;SDS011;31382;50.200;8.674;2022-09-01T08:38:16;6.60;;;0.38;;
45322;SDS011;31382;50.200;8.674;2022-09-01T08:48:51;2.35;;;0.30;;
45322;SDS011;31382;50.200;8.674;2022-09-01T08:59:44;1.45;;;0.30;;
45322;SDS011;31382;50.200;8.674;2022-09-01T09:09:57;1.80;;;0.30;;
45322;SDS011;31382;50.200;8.674;2022-09-01T09:15:16;2.60;;;0.30;;
45322;SDS011;31382;50.200;8.674;2022-09-01T09:20:25;1.73;;;0.63;;
45322;SDS011;31382;50.200;8.674;2022-09-01T09:25:29;3.70;;;0.30;;
45322;SDS011;31382;50.200;8.674;2022-09-01T09:30:36;0.63;;;0.40;;
45322;SDS011;31382;50.200;8.674;2022-09-01T09:35:40;5.68;;;0.30;;
45322;SDS011;31382;50.200;8.674;2022-09-01T09:51:28;6.47;;;0.30;;
45322;SDS011;31382;50.200;8.674;2022-09-01T09:56:32;0.47;;;0.30;;
45322;SDS011;31382;50.200;8.674;2022-09-01T10:01:36;4.17;;;0.37;;
45322;SDS011;31382;50.200;8.674;2022-09-01T10:06:50;0.57;;;0.25;;
45322;SDS011;31382;50.200;8.674;2022-09-01T10:12:00;3.90;;;0.30;;
45322;SDS011;31382;50.200;8.674;2022-09-01T10:17:18;4.82;;;0.50;;
45322;SDS011;31382;50.200;8.674;2022-09-01T10:22:27;2.35;;;0.30;;
45322;SDS011;31382;50.200;8.674;2022-09-01T10:27:38;1.15;;;0.30;;
45322;SDS011;31382;50.200;8.674;2022-09-01T10:33:02;0.63;;;0.30;;
45322;SDS011;31382;50.200;8.674;2022-09-01T10:38:29;0.50;;;0.40;;
45322;SDS011;31382;50.200;8.674;2022-09-01T10:44:19;1.02;;;0.30;;
45322;SDS011;31382;50.200;8.674;2022-09-01T10:54:52;1.85;;;0.30;;
45322;SDS011;31382;50.200;8.674;2022-09-01T11:00:54;0.90;;;0.30;;
45322;SDS011;31382;50.200;8.674;2022-09-01T11:06:09;0.70;;;0.40;;
45322;SDS011;31382;50.200;8.674;2022-09-01T11:11:43;0.55;;;0.20;;
45322;SDS011;31382;50.200;8.674;2022-09-01T11:17:30;0.90;;;0.25;;
45322;SDS011;31382;50.200;8.674;2022-09-01T11:23:38;1.02;;;0.20;;
45322;SDS011;31382;50.200;8.674;2022-09-01T11:35:12;0.40;;;0.25;;
45322;SDS011;31382;50.200;8.674;2022-09-01T11:40:37;0.68;;;0.30;;
45322;SDS011;31382;50.200;8.674;2022-09-01T11:51:50;2.25;;;0.20;;
45322;SDS011;31382;50.200;8.674;2022-09-01T11:57:35;0.73;;;0.20;;
45322;SDS011;31382;50.200;8.674;2022-09-01T12:03:25;2.38;;;0.38;;
45322;SDS011;31382;50.200;8.674;2022-09-01T12:09:01;4.20;;;0.30;;
45322;SDS011;31382;50.200;8.674;2022-09-01T12:14:10;2.45;;;0.30;;
45322;SDS011;31382;50.200;8.674;2022-09-01T12:19:38;0.22;;;0.20;;
45322;SDS011;31382;50.200;8.674;2022-09-01T12:26:13;0.35;;;0.30;;
45322;SDS011;31382;50.200;8.674;2022-09-01T12:31:28;2.17;;;0.30;;
45322;SDS011;31382;50.200;8.674;2022-09-01T12:37:02;3.03;;;0.20;;
45322;SDS011;31382;50.200;8.674;2022-09-01T12:42:20;2.78;;;0.30;;
45322;SDS011;31382;50.200;8.674;2022-09-01T12:47:46;0.82;;;0.30;;
45322;SDS011;31382;50.200;8.674;2022-09-01T12:52:59;0.95;;;0.30;;
45322;SDS011;31382;50.200;8.674;2022-09-01T12:58:27;0.93;;;0.28;;
45322;SDS011;31382;50.200;8.674;2022-09-01T13:03:33;6.43;;;0.40;;
45322;SDS011;31382;50.200;8.674;2022-09-01T13:08:39;2.78;;;0.30;;
45322;SDS011;31382;50.200;8.674;2022-09-01T13:13:44;1.38;;;0.50;;
45322;SDS011;31382;50.200;8.674;2022-09-01T13:18:47;0.73;;;0.30;;
45322;SDS011;31382;50.200;8.674;2022-09-01T13:24:11;4.93;;;0.30;;
45322;SDS011;31382;50.200;8.674;2022-09-01T13:29:26;0.50;;;0.32;;
45322;SDS011;31382;50.200;8.674;2022-09-01T13:34:36;1.80;;;0.30;;
45322;SDS011;31382;50.200;8.674;2022-09-01T13:39:44;0.65;;;0.30;;
45322;SDS011;31382;50.200;8.674;2022-09-01T13:45:05;0.22;;;0.20;;
45322;SDS011;31382;50.200;8.674;2022-09-01T13:50:08;1.92;;;0.30;;
45322;SDS011;31382;50.200;8.674;2022-09-01T14:00:43;1.85;;;0.40;;
45322;SDS011;31382;50.200;8.674;2022-09-01T14:05:47;1.93;;;0.30;;
45322;SDS011;31382;50.200;8.674;2022-09-01T14:11:21;0.40;;;0.30;;
45322;SDS011;31382;50.200;8.674;2022-09-01T14:16:28;0.85;;;0.30;;
45322;SDS011;31382;50.200;8.674;2022-09-01T14:21:30;0.50;;;0.30;;
45322;SDS011;31382;50.200;8.674;2022-09-01T14:26:34;0.50;;;0.22;;
45322;SDS011;31382;50.200;8.674;2022-09-01T14:31:37;0.60;;;0.30;;
45322;SDS011;31382;50.200;8.674;2022-09-01T14:37:14;0.47;;;0.30;;
45322;SDS011;31382;50.200;8.674;2022-09-01T14:42:18;0.60;;;0.30;;
45322;SDS011;31382;50.200;8.674;2022-09-01T14:47:24;1.25;;;0.40;;
45322;SDS011;31382;50.200;8.674;2022-09-01T14:52:28;3.13;;;0.20;;
45322;SDS011;31382;50.200;8.674;2022-09-01T14:57:49;1.20;;;0.50;;
45322;SDS011;31382;50.200;8.674;2022-09-01T15:03:00;3.60;;;0.20;;
45322;SDS011;31382;50.200;8.674;2022-09-01T15:08:32;0.85;;;0.20;;
45322;SDS011;31382;50.200;8.674;2022-09-01T15:14:02;2.97;;;0.32;;
45322;SDS011;31382;50.200;8.674;2022-09-01T15:19:20;5.95;;;0.30;;
45322;SDS011;31382;50.200;8.674;2022-09-01T15:24:22;7.05;;;0.30;;
45322;SDS011;31382;50.200;8.674;2022-09-01T15:29:27;2.22;;;0.85;;
45322;SDS011;31382;50.200;8.674;2022-09-01T15:35:17;0.47;;;0.30;;
45322;SDS011;31382;50.200;8.674;2022-09-01T15:40:25;2.75;;;0.40;;
45322;SDS011;31382;50.200;8.674;2022-09-01T15:45:34;3.17;;;0.30;;
45322;SDS011;31382;50.200;8.674;2022-09-01T15:50:50;1.00;;;0.35;;
45322;SDS011;31382;50.200;8.674;2022-09-01T15:56:48;1.88;;;0.30;;
45322;SDS011;31382;50.200;8.674;2022-09-01T16:02:41;0.45;;;0.35;;
45322;SDS011;31382;50.200;8.674;2022-09-01T16:07:49;1.85;;;0.30;;
45322;SDS011;31382;50.200;8.674;2022-09-01T16:12:53;2.38;;;0.30;;
45322;SDS011;31382;50.200;8.674;2022-09-01T16:18:19;0.80;;;0.38;;
45322;SDS011;31382;50.200;8.674;2022-09-01T16:24:06;1.52;;;0.30;;
45322;SDS011;31382;50.200;8.674;2022-09-01T16:35:24;0.77;;;0.40;;
45322;SDS011;31382;50.200;8.674;2022-09-01T16:41:22;0.82;;;0.30;;
45322;SDS011;31382;50.200;8.674;2022-09-01T17:00:04;0.40;;;0.30;;
45322;SDS011;31382;50.200;8.674;2022-09-01T17:05:24;3.47;;;0.40;;
45322;SDS011;31382;50.200;8.674;2022-09-01T17:10:57;1.23;;;0.30;;
45322;SDS011;31382;50.200;8.674;2022-09-01T17:16:36;1.58;;;0.30;;
45322;SDS011;31382;50.200;8.674;2022-09-01T17:21:55;0.75;;;0.20;;
45322;SDS011;31382;50.200;8.674;2022-09-01T17:27:31;0.45;;;0.30;;
45322;SDS011;31382;50.200;8.674;2022-09-01T17:33:51;1.40;;;0.38;;
45322;SDS011;31382;50.200;8.674;2022-09-01T17:39:40;2.03;;;0.30;;
45322;SDS011;31382;50.200;8.674;2022-09-01T17:45:23;0.75;;;0.30;;
45322;SDS011;31382;50.200;8.674;2022-09-01T17:56:40;0.75;;;0.30;;
45322;SDS011;31382;50.200;8.674;2022-09-01T18:02:36;1.65;;;0.30;;
45322;SDS011;31382;50.200;8.674;2022-09-01T18:08:07;1.17;;;0.45;;
45322;SDS011;31382;50.200;8.674;2022-09-01T18:13:44;1.23;;;0.40;;
45322;SDS011;31382;50.200;8.674;2022-09-01T18:19:17;1.00;;;0.40;;
45322;SDS011;31382;50.200;8.674;2022-09-01T18:24:34;1.48;;;0.40;;
45322;SDS011;31382;50.200;8.674;2022-09-01T18:35:03;2.75;;;0.60;;
45322;SDS011;31382;50.200;8.674;2022-09-01T18:40:20;0.63;;;0.30;;
45322;SDS011;31382;50.200;8.674;2022-09-01T18:52:38;0.25;;;0.20;;
45322;SDS011;31382;50.200;8.674;2022-09-01T18:58:03;1.98;;;0.30;;
45322;SDS011;31382;50.200;8.674;2022-09-01T19:03:23;1.02;;;0.35;;
45322;SDS011;31382;50.200;8.674;2022-09-01T19:15:03;7.30;;;0.40;;
45322;SDS011;31382;50.200;8.674;2022-09-01T19:26:08;0.73;;;0.20;;
45322;SDS011;31382;50.200;8.674;2022-09-01T19:31:42;2.22;;;0.50;;
45322;SDS011;31382;50.200;8.674;2022-09-01T19:36:52;1.75;;;0.50;;
45322;SDS011;31382;50.200;8.674;2022-09-01T19:42:03;2.53;;;0.30;;
45322;SDS011;31382;50.200;8.674;2022-09-01T19:52:52;1.42;;;0.50;;
45322;SDS011;31382;50.200;8.674;2022-09-01T20:03:44;1.75;;;0.25;;
45322;SDS011;31382;50.200;8.674;2022-09-01T20:08:55;4.78;;;0.38;;
45322;SDS011;31382;50.200;8.674;2022-09-01T20:19:47;1.58;;;0.40;;
45322;SDS011;31382;50.200;8.674;2022-09-01T20:24:50;4.75;;;0.77;;
45322;SDS011;31382;50.200;8.674;2022-09-01T20:30:03;4.30;;;0.30;;
45322;SDS011;31382;50.200;8.674;2022-09-01T20:35:14;1.20;;;0.20;;
45322;SDS011;31382;50.200;8.674;2022-09-01T20:40:24;0.65;;;0.40;;
45322;SDS011;31382;50.200;8.674;2022-09-01T20:45:31;3.80;;;0.32;;
45322;SDS011;31382;50.200;8.674;2022-09-01T20:50:49;1.00;;;0.20;;
45322;SDS011;31382;50.200;8.674;2022-09-01T20:56:10;0.55;;;0.20;;
45322;SDS011;31382;50.200;8.674;2022-09-01T21:17:38;0.60;;;0.30;;
45322;SDS011;31382;50.200;8.674;2022-09-01T21:22:41;1.85;;;0.20;;
45322;SDS011;31382;50.200;8.674;2022-09-01T21:27:54;1.52;;;0.30;;
45322;SDS011;31382;50.200;8.674;2022-09-01T21:32:58;0.20;;;0.20;;
45322;SDS011;31382;50.200;8.674;2022-09-01T21:38:00;2.55;;;0.20;;
45322;SDS011;31382;50.200;8.674;2022-09-01T21:43:06;2.47;;;0.30;;
45322;SDS011;31382;50.200;8.674;2022-09-01T21:48:14;0.70;;;0.40;;
45322;SDS011;31382;50.200;8.674;2022-09-01T21:53:16;1.10;;;0.20;;
45322;SDS011;31382;50.200;8.674;2022-09-01T21:58:20;0.63;;;0.20;;
45322;SDS011;31382;50.200;8.674;2022-09-01T22:03:22;0.85;;;0.25;;
45322;SDS011;31382;50.200;8.674;2022-09-01T22:08:24;1.48;;;0.20;;
45322;SDS011;31382;50.200;8.674;2022-09-01T22:13:26;0.90;;;0.30;;
45322;SDS011;31382;50.200;8.674;2022-09-01T22:18:28;0.63;;;0.25;;
45322;SDS011;31382;50.200;8.674;2022-09-01T22:23:30;1.30;;;0.40;;
45322;SDS011;31382;50.200;8.674;2022-09-01T22:28:32;2.92;;;0.30;;
45322;SDS011;31382;50.200;8.674;2022-09-01T22:33:33;1.52;;;0.30;;
45322;SDS011;31382;50.200;8.674;2022-09-01T22:38:35;0.52;;;0.22;;
45322;SDS011;31382;50.200;8.674;2022-09-01T22:43:37;2.90;;;0.25;;
45322;SDS011;31382;50.200;8.674;2022-09-01T22:48:39;1.20;;;0.65;;
45322;SDS011;31382;50.200;8.674;2022-09-01T22:53:41;0.30;;;0.20;;
45322;SDS011;31382;50.200;8.674;2022-09-01T22:58:46;0.68;;;0.20;;
45322;SDS011;31382;50.200;8.674;2022-09-01T23:03:48;0.35;;;0.20;;
45322;SDS011;31382;50.200;8.674;2022-09-01T23:08:52;0.40;;;0.30;;
45322;SDS011;31382;50.200;8.674;2022-09-01T23:13:54;0.95;;;0.38;;
45322;SDS011;31382;50.200;8.674;2022-09-01T23:18:56;0.35;;;0.25;;
45322;SDS011;31382;50.200;8.674;2022-09-01T23:23:58;2.90;;;0.40;;
45322;SDS011;31382;50.200;8.674;2022-09-01T23:29:01;0.47;;;0.30;;
45322;SDS011;31382;50.200;8.674;2022-09-01T23:34:06;0.60;;;0.20;;
45322;SDS011;31382;50.200;8.674;2022-09-01T23:39:08;0.65;;;0.30;;
45322;SDS011;31382;50.200;8.674;2022-09-01T23:44:10;0.60;;;0.30;;
45322;SDS011;31382;50.200;8.674;2022-09-01T23:49:13;0.47;;;0.20;;
45322;SDS011;31382;50.200;8.674;2022-09-01T23:54:15;2.38;;;0.32;;
45322;SDS011;31382;50.200;8.674;2022-09-01T23:59:17;0.40;;;0.30;;
